sensor_id;sensor_type;location;lat;lon;timestamp;P1;durP1;ratioP1;P2;durP2;ratioP2
62574;SDS011;53112;45.602;11.904;2022-12-29T00:01:55;58.90;;;36.88;;
62574;SDS011;53112;45.602;11.904;2022-12-29T00:04:21;57.67;;;35.63;;
62574;SDS011;53112;45.602;11.904;2022-12-29T00:06:47;50.97;;;32.75;;
62574;SDS011;53112;45.602;11.904;2022-12-29T00:09:14;57.40;;;34.88;;
62574;SDS011;53112;45.602;11.904;2022-12-29T00:11:41;58.53;;;33.97;;
62574;SDS011;53112;45.602;11.904;2022-12-29T00:14:11;55.97;;;33.90;;
62574;SDS011;53112;45.602;11.904;2022-12-29T00:16:56;53.28;;;31.55;;
62574;SDS011;53112;45.602;11.904;2022-12-29T00:19:22;52.05;;;32.15;;
62574;SDS011;53112;45.602;11.904;2022-12-29T00:22:13;50.45;;;30.08;;
62574;SDS011;53112;45.602;11.904;2022-12-29T00:24:58;44.65;;;26.92;;
62574;SDS011;53112;45.602;11.904;2022-12-29T00:27:42;40.95;;;26.10;;
62574;SDS011;53112;45.602;11.904;2022-12-29T00:30:27;50.42;;;30.17;;
62574;SDS011;53112;45.602;11.904;2022-12-29T00:33:14;53.80;;;31.20;;
62574;SDS011;53112;45.602;11.904;2022-12-29T00:36:01;45.88;;;28.73;;
62574;SDS011;53112;45.602;11.904;2022-12-29T00:38:31;50.22;;;29.20;;
62574;SDS011;53112;45.602;11.904;2022-12-29T00:41:18;48.80;;;28.15;;
62574;SDS011;53112;45.602;11.904;2022-12-29T00:44:03;44.53;;;28.00;;
62574;SDS011;53112;45.602;11.904;2022-12-29T00:46:39;46.47;;;27.27;;
62574;SDS011;53112;45.602;11.904;2022-12-29T00:49:07;46.05;;;28.75;;
62574;SDS011;53112;45.602;11.904;2022-12-29T00:51:53;46.08;;;27.33;;
62574;SDS011;53112;45.602;11.904;2022-12-29T00:54:21;45.78;;;27.67;;
62574;SDS011;53112;45.602;11.904;2022-12-29T00:56:48;44.28;;;25.83;;
62574;SDS011;53112;45.602;11.904;2022-12-29T00:59:15;40.88;;;25.58;;
62574;SDS011;53112;45.602;11.904;2022-12-29T01:01:41;43.15;;;25.10;;
62574;SDS011;53112;45.602;11.904;2022-12-29T01:04:08;44.05;;;27.23;;
62574;SDS011;53112;45.602;11.904;2022-12-29T01:06:34;43.22;;;27.05;;
62574;SDS011;53112;45.602;11.904;2022-12-29T01:09:02;47.08;;;28.20;;
62574;SDS011;53112;45.602;11.904;2022-12-29T01:11:47;48.03;;;28.95;;
62574;SDS011;53112;45.602;11.904;2022-12-29T01:14:13;45.13;;;28.38;;
62574;SDS011;53112;45.602;11.904;2022-12-29T01:16:39;44.35;;;27.48;;
62574;SDS011;53112;45.602;11.904;2022-12-29T01:19:05;42.17;;;25.98;;
62574;SDS011;53112;45.602;11.904;2022-12-29T01:21:32;43.63;;;26.50;;
62574;SDS011;53112;45.602;11.904;2022-12-29T01:23:58;38.60;;;22.75;;
62574;SDS011;53112;45.602;11.904;2022-12-29T01:26:24;40.30;;;25.10;;
62574;SDS011;53112;45.602;11.904;2022-12-29T01:28:50;41.13;;;23.17;;
62574;SDS011;53112;45.602;11.904;2022-12-29T01:31:16;38.22;;;23.55;;
62574;SDS011;53112;45.602;11.904;2022-12-29T01:33:42;39.08;;;22.48;;
62574;SDS011;53112;45.602;11.904;2022-12-29T01:36:10;39.38;;;24.55;;
62574;SDS011;53112;45.602;11.904;2022-12-29T01:38:38;36.33;;;21.85;;
62574;SDS011;53112;45.602;11.904;2022-12-29T01:41:05;35.30;;;22.13;;
62574;SDS011;53112;45.602;11.904;2022-12-29T01:46:30;33.58;;;20.88;;
62574;SDS011;53112;45.602;11.904;2022-12-29T01:49:09;41.47;;;23.63;;
62574;SDS011;53112;45.602;11.904;2022-12-29T01:51:38;34.17;;;22.00;;
62574;SDS011;53112;45.602;11.904;2022-12-29T01:54:12;35.85;;;22.42;;
62574;SDS011;53112;45.602;11.904;2022-12-29T01:56:51;36.03;;;23.33;;
62574;SDS011;53112;45.602;11.904;2022-12-29T01:59:19;32.80;;;21.15;;
62574;SDS011;53112;45.602;11.904;2022-12-29T02:01:49;34.58;;;21.05;;
62574;SDS011;53112;45.602;11.904;2022-12-29T02:04:15;36.15;;;21.90;;
62574;SDS011;53112;45.602;11.904;2022-12-29T02:07:16;33.78;;;20.92;;
62574;SDS011;53112;45.602;11.904;2022-12-29T02:09:37;34.67;;;20.90;;
62574;SDS011;53112;45.602;11.904;2022-12-29T02:12:03;38.15;;;21.73;;
62574;SDS011;53112;45.602;11.904;2022-12-29T02:14:29;43.00;;;26.85;;
62574;SDS011;53112;45.602;11.904;2022-12-29T02:27:43;45.95;;;27.67;;
62574;SDS011;53112;45.602;11.904;2022-12-29T02:30:25;46.13;;;28.25;;
62574;SDS011;53112;45.602;11.904;2022-12-29T02:46:49;43.70;;;26.58;;
62574;SDS011;53112;45.602;11.904;2022-12-29T02:49:45;46.60;;;26.45;;
62574;SDS011;53112;45.602;11.904;2022-12-29T02:52:21;44.55;;;26.38;;
62574;SDS011;53112;45.602;11.904;2022-12-29T02:54:55;39.83;;;25.42;;
62574;SDS011;53112;45.602;11.904;2022-12-29T02:59:51;43.70;;;26.98;;
62574;SDS011;53112;45.602;11.904;2022-12-29T03:13:52;35.85;;;22.95;;
62574;SDS011;53112;45.602;11.904;2022-12-29T03:16:43;32.80;;;19.73;;
62574;SDS011;53112;45.602;11.904;2022-12-29T03:22:06;32.33;;;21.08;;
62574;SDS011;53112;45.602;11.904;2022-12-29T03:25:08;36.92;;;22.45;;
62574;SDS011;53112;45.602;11.904;2022-12-29T03:27:39;33.00;;;19.08;;
62574;SDS011;53112;45.602;11.904;2022-12-29T03:30:09;47.28;;;27.13;;
62574;SDS011;53112;45.602;11.904;2022-12-29T03:32:42;43.78;;;26.75;;
62574;SDS011;53112;45.602;11.904;2022-12-29T03:35:20;44.13;;;26.60;;
62574;SDS011;53112;45.602;11.904;2022-12-29T03:38:33;43.15;;;25.30;;
62574;SDS011;53112;45.602;11.904;2022-12-29T03:40:40;49.10;;;29.05;;
62574;SDS011;53112;45.602;11.904;2022-12-29T03:43:09;44.92;;;27.08;;
62574;SDS011;53112;45.602;11.904;2022-12-29T03:45:36;46.42;;;27.65;;
62574;SDS011;53112;45.602;11.904;2022-12-29T03:48:02;46.30;;;27.45;;
62574;SDS011;53112;45.602;11.904;2022-12-29T03:50:28;44.60;;;28.02;;
62574;SDS011;53112;45.602;11.904;2022-12-29T03:52:54;41.53;;;26.08;;
62574;SDS011;53112;45.602;11.904;2022-12-29T03:55:20;38.30;;;23.88;;
62574;SDS011;53112;45.602;11.904;2022-12-29T03:57:45;38.70;;;23.08;;
62574;SDS011;53112;45.602;11.904;2022-12-29T04:00:11;35.17;;;22.25;;
62574;SDS011;53112;45.602;11.904;2022-12-29T04:02:38;33.83;;;20.15;;
62574;SDS011;53112;45.602;11.904;2022-12-29T04:05:04;33.25;;;20.98;;
62574;SDS011;53112;45.602;11.904;2022-12-29T04:07:30;33.10;;;20.70;;
62574;SDS011;53112;45.602;11.904;2022-12-29T04:09:56;31.40;;;19.92;;
62574;SDS011;53112;45.602;11.904;2022-12-29T04:12:21;34.78;;;20.58;;
62574;SDS011;53112;45.602;11.904;2022-12-29T04:14:47;32.60;;;19.58;;
62574;SDS011;53112;45.602;11.904;2022-12-29T04:17:13;32.58;;;20.25;;
62574;SDS011;53112;45.602;11.904;2022-12-29T04:19:38;31.52;;;19.73;;
62574;SDS011;53112;45.602;11.904;2022-12-29T04:22:04;31.63;;;19.63;;
62574;SDS011;53112;45.602;11.904;2022-12-29T04:24:30;28.58;;;18.58;;
62574;SDS011;53112;45.602;11.904;2022-12-29T04:26:56;29.77;;;17.80;;
62574;SDS011;53112;45.602;11.904;2022-12-29T04:29:21;30.75;;;19.60;;
62574;SDS011;53112;45.602;11.904;2022-12-29T04:31:47;36.88;;;22.70;;
62574;SDS011;53112;45.602;11.904;2022-12-29T04:34:13;37.80;;;23.35;;
62574;SDS011;53112;45.602;11.904;2022-12-29T04:36:39;40.33;;;24.05;;
62574;SDS011;53112;45.602;11.904;2022-12-29T04:39:05;37.40;;;22.30;;
62574;SDS011;53112;45.602;11.904;2022-12-29T04:41:31;36.83;;;22.50;;
62574;SDS011;53112;45.602;11.904;2022-12-29T04:43:57;32.85;;;22.20;;
62574;SDS011;53112;45.602;11.904;2022-12-29T04:46:23;35.95;;;21.17;;
62574;SDS011;53112;45.602;11.904;2022-12-29T04:48:49;32.20;;;20.85;;
62574;SDS011;53112;45.602;11.904;2022-12-29T04:51:14;35.95;;;21.80;;
62574;SDS011;53112;45.602;11.904;2022-12-29T04:53:40;33.00;;;19.83;;
62574;SDS011;53112;45.602;11.904;2022-12-29T04:56:06;37.88;;;23.55;;
62574;SDS011;53112;45.602;11.904;2022-12-29T04:58:32;40.88;;;23.13;;
62574;SDS011;53112;45.602;11.904;2022-12-29T05:00:58;37.15;;;21.27;;
62574;SDS011;53112;45.602;11.904;2022-12-29T05:03:23;34.10;;;22.17;;
62574;SDS011;53112;45.602;11.904;2022-12-29T05:05:52;33.22;;;21.15;;
62574;SDS011;53112;45.602;11.904;2022-12-29T05:08:19;32.42;;;20.38;;
62574;SDS011;53112;45.602;11.904;2022-12-29T05:10:45;35.88;;;21.55;;
62574;SDS011;53112;45.602;11.904;2022-12-29T05:13:11;31.27;;;18.05;;
62574;SDS011;53112;45.602;11.904;2022-12-29T05:15:37;32.65;;;20.10;;
62574;SDS011;53112;45.602;11.904;2022-12-29T05:18:03;31.17;;;19.65;;
62574;SDS011;53112;45.602;11.904;2022-12-29T05:20:28;30.70;;;19.30;;
62574;SDS011;53112;45.602;11.904;2022-12-29T05:22:54;31.13;;;20.13;;
62574;SDS011;53112;45.602;11.904;2022-12-29T05:25:20;32.05;;;20.70;;
62574;SDS011;53112;45.602;11.904;2022-12-29T05:27:46;36.47;;;21.95;;
62574;SDS011;53112;45.602;11.904;2022-12-29T05:30:12;32.45;;;19.88;;
62574;SDS011;53112;45.602;11.904;2022-12-29T05:32:38;30.05;;;19.02;;
62574;SDS011;53112;45.602;11.904;2022-12-29T05:35:04;32.80;;;20.23;;
62574;SDS011;53112;45.602;11.904;2022-12-29T05:37:30;31.23;;;20.17;;
62574;SDS011;53112;45.602;11.904;2022-12-29T05:39:55;31.80;;;19.40;;
62574;SDS011;53112;45.602;11.904;2022-12-29T05:42:21;31.08;;;18.52;;
62574;SDS011;53112;45.602;11.904;2022-12-29T05:44:47;29.85;;;18.58;;
62574;SDS011;53112;45.602;11.904;2022-12-29T05:47:15;31.30;;;18.45;;
62574;SDS011;53112;45.602;11.904;2022-12-29T05:49:40;24.98;;;16.67;;
62574;SDS011;53112;45.602;11.904;2022-12-29T05:52:06;30.98;;;19.13;;
62574;SDS011;53112;45.602;11.904;2022-12-29T05:54:32;32.08;;;19.67;;
62574;SDS011;53112;45.602;11.904;2022-12-29T05:56:57;27.40;;;17.92;;
62574;SDS011;53112;45.602;11.904;2022-12-29T05:59:23;33.30;;;20.88;;
62574;SDS011;53112;45.602;11.904;2022-12-29T06:01:49;29.92;;;18.90;;
62574;SDS011;53112;45.602;11.904;2022-12-29T06:04:15;33.33;;;20.35;;
62574;SDS011;53112;45.602;11.904;2022-12-29T06:06:40;34.00;;;21.35;;
62574;SDS011;53112;45.602;11.904;2022-12-29T06:09:09;36.20;;;22.05;;
62574;SDS011;53112;45.602;11.904;2022-12-29T06:11:36;42.63;;;23.63;;
62574;SDS011;53112;45.602;11.904;2022-12-29T06:14:02;43.30;;;25.05;;
62574;SDS011;53112;45.602;11.904;2022-12-29T06:16:28;46.75;;;25.88;;
62574;SDS011;53112;45.602;11.904;2022-12-29T06:18:54;41.83;;;24.17;;
62574;SDS011;53112;45.602;11.904;2022-12-29T06:21:20;35.55;;;21.52;;
62574;SDS011;53112;45.602;11.904;2022-12-29T06:23:46;32.58;;;21.10;;
62574;SDS011;53112;45.602;11.904;2022-12-29T06:26:12;33.20;;;19.95;;
62574;SDS011;53112;45.602;11.904;2022-12-29T06:28:38;32.30;;;18.60;;
62574;SDS011;53112;45.602;11.904;2022-12-29T06:31:03;34.25;;;20.10;;
62574;SDS011;53112;45.602;11.904;2022-12-29T06:33:30;31.63;;;18.75;;
62574;SDS011;53112;45.602;11.904;2022-12-29T06:35:55;32.45;;;19.77;;
62574;SDS011;53112;45.602;11.904;2022-12-29T06:38:21;33.85;;;19.30;;
62574;SDS011;53112;45.602;11.904;2022-12-29T06:40:47;35.05;;;20.15;;
62574;SDS011;53112;45.602;11.904;2022-12-29T06:43:13;34.10;;;20.42;;
62574;SDS011;53112;45.602;11.904;2022-12-29T06:45:39;36.67;;;21.90;;
62574;SDS011;53112;45.602;11.904;2022-12-29T06:48:06;32.95;;;19.00;;
62574;SDS011;53112;45.602;11.904;2022-12-29T06:50:32;32.10;;;19.48;;
62574;SDS011;53112;45.602;11.904;2022-12-29T06:52:58;32.47;;;20.08;;
62574;SDS011;53112;45.602;11.904;2022-12-29T06:55:24;34.00;;;19.65;;
62574;SDS011;53112;45.602;11.904;2022-12-29T06:57:49;28.95;;;18.25;;
62574;SDS011;53112;45.602;11.904;2022-12-29T07:00:15;33.45;;;19.65;;
62574;SDS011;53112;45.602;11.904;2022-12-29T07:02:42;30.38;;;18.50;;
62574;SDS011;53112;45.602;11.904;2022-12-29T07:05:07;31.17;;;19.38;;
62574;SDS011;53112;45.602;11.904;2022-12-29T07:07:35;142.30;;;63.40;;
62574;SDS011;53112;45.602;11.904;2022-12-29T07:10:01;179.30;;;79.18;;
62574;SDS011;53112;45.602;11.904;2022-12-29T07:12:26;128.75;;;60.95;;
62574;SDS011;53112;45.602;11.904;2022-12-29T07:14:52;126.20;;;59.25;;
62574;SDS011;53112;45.602;11.904;2022-12-29T07:17:18;82.07;;;42.20;;
62574;SDS011;53112;45.602;11.904;2022-12-29T07:19:44;49.88;;;28.70;;
62574;SDS011;53112;45.602;11.904;2022-12-29T07:22:10;40.40;;;24.35;;
62574;SDS011;53112;45.602;11.904;2022-12-29T07:24:35;38.17;;;23.23;;
62574;SDS011;53112;45.602;11.904;2022-12-29T07:27:01;35.80;;;21.92;;
62574;SDS011;53112;45.602;11.904;2022-12-29T07:29:27;32.08;;;19.73;;
62574;SDS011;53112;45.602;11.904;2022-12-29T07:31:52;31.95;;;19.88;;
62574;SDS011;53112;45.602;11.904;2022-12-29T07:34:18;30.13;;;19.23;;
62574;SDS011;53112;45.602;11.904;2022-12-29T07:36:44;31.88;;;18.25;;
62574;SDS011;53112;45.602;11.904;2022-12-29T07:39:10;29.08;;;18.42;;
62574;SDS011;53112;45.602;11.904;2022-12-29T07:41:36;26.98;;;17.13;;
62574;SDS011;53112;45.602;11.904;2022-12-29T07:44:02;24.98;;;15.82;;
62574;SDS011;53112;45.602;11.904;2022-12-29T07:46:28;28.27;;;17.35;;
62574;SDS011;53112;45.602;11.904;2022-12-29T07:48:54;23.63;;;15.82;;
62574;SDS011;53112;45.602;11.904;2022-12-29T07:51:20;27.48;;;16.92;;
62574;SDS011;53112;45.602;11.904;2022-12-29T07:53:45;28.48;;;18.35;;
62574;SDS011;53112;45.602;11.904;2022-12-29T07:56:11;26.45;;;16.77;;
62574;SDS011;53112;45.602;11.904;2022-12-29T07:58:37;27.70;;;18.00;;
62574;SDS011;53112;45.602;11.904;2022-12-29T08:01:03;33.65;;;20.75;;
62574;SDS011;53112;45.602;11.904;2022-12-29T08:03:28;33.65;;;22.02;;
62574;SDS011;53112;45.602;11.904;2022-12-29T08:05:54;35.90;;;22.00;;
62574;SDS011;53112;45.602;11.904;2022-12-29T08:08:22;37.70;;;23.75;;
62574;SDS011;53112;45.602;11.904;2022-12-29T08:10:47;37.97;;;22.02;;
62574;SDS011;53112;45.602;11.904;2022-12-29T08:13:13;32.15;;;19.98;;
62574;SDS011;53112;45.602;11.904;2022-12-29T08:15:39;29.88;;;19.63;;
62574;SDS011;53112;45.602;11.904;2022-12-29T08:18:05;32.00;;;21.17;;
62574;SDS011;53112;45.602;11.904;2022-12-29T08:20:31;31.80;;;20.77;;
62574;SDS011;53112;45.602;11.904;2022-12-29T08:22:57;33.92;;;20.73;;
62574;SDS011;53112;45.602;11.904;2022-12-29T08:25:23;30.05;;;19.60;;
62574;SDS011;53112;45.602;11.904;2022-12-29T08:27:49;31.00;;;19.92;;
62574;SDS011;53112;45.602;11.904;2022-12-29T08:30:15;39.28;;;23.98;;
62574;SDS011;53112;45.602;11.904;2022-12-29T08:32:41;34.80;;;21.23;;
62574;SDS011;53112;45.602;11.904;2022-12-29T08:35:07;37.25;;;22.17;;
62574;SDS011;53112;45.602;11.904;2022-12-29T08:37:33;42.38;;;26.17;;
62574;SDS011;53112;45.602;11.904;2022-12-29T08:39:59;43.47;;;27.60;;
62574;SDS011;53112;45.602;11.904;2022-12-29T08:42:29;38.90;;;24.80;;
62574;SDS011;53112;45.602;11.904;2022-12-29T08:44:56;40.50;;;25.40;;
62574;SDS011;53112;45.602;11.904;2022-12-29T08:47:23;36.63;;;22.50;;
62574;SDS011;53112;45.602;11.904;2022-12-29T08:49:49;47.58;;;27.35;;
62574;SDS011;53112;45.602;11.904;2022-12-29T08:52:15;36.55;;;22.73;;
62574;SDS011;53112;45.602;11.904;2022-12-29T08:54:41;42.85;;;26.65;;
62574;SDS011;53112;45.602;11.904;2022-12-29T08:57:07;34.28;;;22.40;;
62574;SDS011;53112;45.602;11.904;2022-12-29T08:59:32;34.90;;;21.25;;
62574;SDS011;53112;45.602;11.904;2022-12-29T09:01:58;31.45;;;20.40;;
62574;SDS011;53112;45.602;11.904;2022-12-29T09:04:25;29.10;;;19.05;;
62574;SDS011;53112;45.602;11.904;2022-12-29T09:06:52;30.80;;;19.80;;
62574;SDS011;53112;45.602;11.904;2022-12-29T09:09:19;31.25;;;20.05;;
62574;SDS011;53112;45.602;11.904;2022-12-29T09:11:45;30.70;;;18.75;;
62574;SDS011;53112;45.602;11.904;2022-12-29T09:14:11;30.50;;;19.40;;
62574;SDS011;53112;45.602;11.904;2022-12-29T09:16:37;29.70;;;18.63;;
62574;SDS011;53112;45.602;11.904;2022-12-29T09:19:04;30.20;;;19.52;;
62574;SDS011;53112;45.602;11.904;2022-12-29T09:21:30;28.73;;;18.27;;
62574;SDS011;53112;45.602;11.904;2022-12-29T09:23:56;29.73;;;19.25;;
62574;SDS011;53112;45.602;11.904;2022-12-29T09:26:22;26.60;;;17.58;;
62574;SDS011;53112;45.602;11.904;2022-12-29T09:28:48;26.85;;;17.20;;
62574;SDS011;53112;45.602;11.904;2022-12-29T09:31:13;24.08;;;16.15;;
62574;SDS011;53112;45.602;11.904;2022-12-29T09:33:39;35.35;;;21.10;;
62574;SDS011;53112;45.602;11.904;2022-12-29T09:36:06;33.90;;;20.90;;
62574;SDS011;53112;45.602;11.904;2022-12-29T09:38:33;32.60;;;18.98;;
62574;SDS011;53112;45.602;11.904;2022-12-29T09:41:01;30.20;;;17.98;;
62574;SDS011;53112;45.602;11.904;2022-12-29T09:43:43;25.90;;;17.73;;
62574;SDS011;53112;45.602;11.904;2022-12-29T09:46:28;26.60;;;17.80;;
62574;SDS011;53112;45.602;11.904;2022-12-29T09:51:42;25.00;;;15.65;;
62574;SDS011;53112;45.602;11.904;2022-12-29T09:54:55;23.40;;;15.65;;
62574;SDS011;53112;45.602;11.904;2022-12-29T09:57:38;25.38;;;16.27;;
62574;SDS011;53112;45.602;11.904;2022-12-29T10:00:37;24.05;;;15.65;;
62574;SDS011;53112;45.602;11.904;2022-12-29T10:03:24;25.58;;;15.48;;
62574;SDS011;53112;45.602;11.904;2022-12-29T10:05:58;29.13;;;17.77;;
62574;SDS011;53112;45.602;11.904;2022-12-29T10:16:25;24.60;;;16.08;;
62574;SDS011;53112;45.602;11.904;2022-12-29T10:21:44;24.13;;;15.77;;
62574;SDS011;53112;45.602;11.904;2022-12-29T10:24:30;25.30;;;16.65;;
62574;SDS011;53112;45.602;11.904;2022-12-29T10:26:58;24.42;;;16.02;;
62574;SDS011;53112;45.602;11.904;2022-12-29T10:29:27;25.48;;;15.98;;
62574;SDS011;53112;45.602;11.904;2022-12-29T10:32:04;24.95;;;15.85;;
62574;SDS011;53112;45.602;11.904;2022-12-29T10:34:39;27.95;;;17.20;;
62574;SDS011;53112;45.602;11.904;2022-12-29T10:39:54;27.48;;;17.23;;
62574;SDS011;53112;45.602;11.904;2022-12-29T10:45:10;24.48;;;16.42;;
62574;SDS011;53112;45.602;11.904;2022-12-29T10:47:42;25.48;;;16.77;;
62574;SDS011;53112;45.602;11.904;2022-12-29T10:50:25;28.55;;;17.98;;
62574;SDS011;53112;45.602;11.904;2022-12-29T10:52:52;25.65;;;16.48;;
62574;SDS011;53112;45.602;11.904;2022-12-29T10:55:25;26.23;;;17.35;;
62574;SDS011;53112;45.602;11.904;2022-12-29T10:57:54;24.25;;;16.05;;
62574;SDS011;53112;45.602;11.904;2022-12-29T11:00:24;23.95;;;15.82;;
62574;SDS011;53112;45.602;11.904;2022-12-29T11:08:35;27.38;;;17.60;;
62574;SDS011;53112;45.602;11.904;2022-12-29T11:11:12;28.55;;;19.63;;
62574;SDS011;53112;45.602;11.904;2022-12-29T11:13:57;25.17;;;17.30;;
62574;SDS011;53112;45.602;11.904;2022-12-29T11:16:28;27.80;;;16.95;;
62574;SDS011;53112;45.602;11.904;2022-12-29T11:18:56;26.55;;;17.50;;
62574;SDS011;53112;45.602;11.904;2022-12-29T11:21:36;25.35;;;16.98;;
62574;SDS011;53112;45.602;11.904;2022-12-29T11:26:52;23.08;;;15.13;;
62574;SDS011;53112;45.602;11.904;2022-12-29T11:29:24;23.40;;;14.48;;
62574;SDS011;53112;45.602;11.904;2022-12-29T11:32:05;26.15;;;15.93;;
62574;SDS011;53112;45.602;11.904;2022-12-29T11:34:57;22.20;;;14.98;;
62574;SDS011;53112;45.602;11.904;2022-12-29T11:37:39;23.98;;;16.30;;
62574;SDS011;53112;45.602;11.904;2022-12-29T11:40:06;23.95;;;15.40;;
62574;SDS011;53112;45.602;11.904;2022-12-29T11:45:05;24.50;;;15.93;;
62574;SDS011;53112;45.602;11.904;2022-12-29T11:47:45;25.17;;;16.05;;
62574;SDS011;53112;45.602;11.904;2022-12-29T11:50:32;23.25;;;15.35;;
62574;SDS011;53112;45.602;11.904;2022-12-29T11:53:03;24.13;;;16.20;;
62574;SDS011;53112;45.602;11.904;2022-12-29T11:55:39;25.38;;;16.60;;
62574;SDS011;53112;45.602;11.904;2022-12-29T11:58:05;23.85;;;16.08;;
62574;SDS011;53112;45.602;11.904;2022-12-29T12:00:32;23.70;;;15.90;;
62574;SDS011;53112;45.602;11.904;2022-12-29T12:03:24;26.42;;;16.05;;
62574;SDS011;53112;45.602;11.904;2022-12-29T12:11:28;24.17;;;15.55;;
62574;SDS011;53112;45.602;11.904;2022-12-29T12:17:00;24.80;;;16.27;;
62574;SDS011;53112;45.602;11.904;2022-12-29T12:19:32;25.05;;;15.82;;
62574;SDS011;53112;45.602;11.904;2022-12-29T12:22:23;23.80;;;15.73;;
62574;SDS011;53112;45.602;11.904;2022-12-29T12:27:33;24.63;;;15.77;;
62574;SDS011;53112;45.602;11.904;2022-12-29T12:30:10;23.88;;;16.05;;
62574;SDS011;53112;45.602;11.904;2022-12-29T13:00:12;23.73;;;14.40;;
62574;SDS011;53112;45.602;11.904;2022-12-29T13:17:07;24.83;;;16.65;;
62574;SDS011;53112;45.602;11.904;2022-12-29T13:22:36;25.45;;;17.10;;
62574;SDS011;53112;45.602;11.904;2022-12-29T13:25:20;26.08;;;17.50;;
62574;SDS011;53112;45.602;11.904;2022-12-29T13:30:35;26.00;;;17.52;;
62574;SDS011;53112;45.602;11.904;2022-12-29T13:35:52;26.80;;;16.80;;
62574;SDS011;53112;45.602;11.904;2022-12-29T13:38:39;24.17;;;15.77;;
62574;SDS011;53112;45.602;11.904;2022-12-29T13:41:11;23.55;;;15.77;;
62574;SDS011;53112;45.602;11.904;2022-12-29T13:44:04;28.80;;;16.55;;
62574;SDS011;53112;45.602;11.904;2022-12-29T13:46:38;26.40;;;17.23;;
62574;SDS011;53112;45.602;11.904;2022-12-29T13:49:18;30.58;;;19.13;;
62574;SDS011;53112;45.602;11.904;2022-12-29T13:51:55;28.75;;;18.15;;
62574;SDS011;53112;45.602;11.904;2022-12-29T14:00:03;27.73;;;18.60;;
62574;SDS011;53112;45.602;11.904;2022-12-29T14:07:46;26.15;;;17.90;;
62574;SDS011;53112;45.602;11.904;2022-12-29T14:10:30;29.77;;;20.02;;
62574;SDS011;53112;45.602;11.904;2022-12-29T14:15:38;37.28;;;23.80;;
62574;SDS011;53112;45.602;11.904;2022-12-29T14:20:59;26.52;;;17.90;;
62574;SDS011;53112;45.602;11.904;2022-12-29T14:28:34;30.45;;;19.98;;
62574;SDS011;53112;45.602;11.904;2022-12-29T14:31:28;28.08;;;18.35;;
62574;SDS011;53112;45.602;11.904;2022-12-29T14:39:03;26.05;;;17.85;;
62574;SDS011;53112;45.602;11.904;2022-12-29T14:41:50;27.08;;;17.38;;
62574;SDS011;53112;45.602;11.904;2022-12-29T14:44:29;26.08;;;17.00;;
62574;SDS011;53112;45.602;11.904;2022-12-29T14:46:57;28.90;;;16.73;;
62574;SDS011;53112;45.602;11.904;2022-12-29T14:49:31;26.05;;;17.25;;
62574;SDS011;53112;45.602;11.904;2022-12-29T14:52:16;26.95;;;17.92;;
62574;SDS011;53112;45.602;11.904;2022-12-29T14:54:48;27.48;;;17.90;;
62574;SDS011;53112;45.602;11.904;2022-12-29T14:57:28;27.25;;;18.40;;
62574;SDS011;53112;45.602;11.904;2022-12-29T15:02:54;30.40;;;18.98;;
62574;SDS011;53112;45.602;11.904;2022-12-29T15:05:45;29.52;;;19.45;;
62574;SDS011;53112;45.602;11.904;2022-12-29T15:08:28;31.58;;;20.70;;
62574;SDS011;53112;45.602;11.904;2022-12-29T15:10:59;33.33;;;20.48;;
62574;SDS011;53112;45.602;11.904;2022-12-29T15:13:39;36.63;;;22.70;;
62574;SDS011;53112;45.602;11.904;2022-12-29T15:16:26;31.17;;;21.00;;
62574;SDS011;53112;45.602;11.904;2022-12-29T15:18:56;33.10;;;21.23;;
62574;SDS011;53112;45.602;11.904;2022-12-29T15:21:24;31.52;;;19.60;;
62574;SDS011;53112;45.602;11.904;2022-12-29T15:23:53;34.05;;;21.55;;
62574;SDS011;53112;45.602;11.904;2022-12-29T15:26:19;35.20;;;20.50;;
62574;SDS011;53112;45.602;11.904;2022-12-29T15:28:50;31.05;;;19.48;;
62574;SDS011;53112;45.602;11.904;2022-12-29T15:31:18;30.98;;;19.10;;
62574;SDS011;53112;45.602;11.904;2022-12-29T15:33:50;30.50;;;19.08;;
62574;SDS011;53112;45.602;11.904;2022-12-29T15:36:22;28.95;;;18.55;;
62574;SDS011;53112;45.602;11.904;2022-12-29T15:38:52;29.60;;;19.50;;
62574;SDS011;53112;45.602;11.904;2022-12-29T15:41:23;29.45;;;18.67;;
62574;SDS011;53112;45.602;11.904;2022-12-29T15:47:46;27.35;;;18.20;;
62574;SDS011;53112;45.602;11.904;2022-12-29T15:50:29;29.27;;;19.10;;
62574;SDS011;53112;45.602;11.904;2022-12-29T15:53:00;29.58;;;18.73;;
62574;SDS011;53112;45.602;11.904;2022-12-29T15:55:35;37.92;;;23.05;;
62574;SDS011;53112;45.602;11.904;2022-12-29T15:58:16;34.88;;;21.67;;
62574;SDS011;53112;45.602;11.904;2022-12-29T16:00:48;41.10;;;23.13;;
62574;SDS011;53112;45.602;11.904;2022-12-29T16:03:20;38.85;;;22.63;;
62574;SDS011;53112;45.602;11.904;2022-12-29T16:05:52;34.42;;;20.27;;
62574;SDS011;53112;45.602;11.904;2022-12-29T16:08:21;30.33;;;19.27;;
62574;SDS011;53112;45.602;11.904;2022-12-29T16:10:51;33.13;;;20.15;;
62574;SDS011;53112;45.602;11.904;2022-12-29T16:13:20;33.55;;;20.45;;
62574;SDS011;53112;45.602;11.904;2022-12-29T16:15:48;32.05;;;20.67;;
62574;SDS011;53112;45.602;11.904;2022-12-29T16:18:24;34.22;;;20.52;;
62574;SDS011;53112;45.602;11.904;2022-12-29T16:20:59;32.78;;;20.30;;
62574;SDS011;53112;45.602;11.904;2022-12-29T16:23:27;31.77;;;20.50;;
62574;SDS011;53112;45.602;11.904;2022-12-29T16:25:55;32.22;;;20.17;;
62574;SDS011;53112;45.602;11.904;2022-12-29T16:28:23;30.55;;;19.58;;
62574;SDS011;53112;45.602;11.904;2022-12-29T16:30:59;35.10;;;20.92;;
62574;SDS011;53112;45.602;11.904;2022-12-29T16:33:36;37.05;;;23.10;;
62574;SDS011;53112;45.602;11.904;2022-12-29T16:36:23;35.50;;;22.30;;
62574;SDS011;53112;45.602;11.904;2022-12-29T16:41:47;42.78;;;26.58;;
62574;SDS011;53112;45.602;11.904;2022-12-29T16:44:21;46.67;;;29.30;;
62574;SDS011;53112;45.602;11.904;2022-12-29T16:49:48;52.60;;;31.60;;
62574;SDS011;53112;45.602;11.904;2022-12-29T16:52:21;49.05;;;31.13;;
62574;SDS011;53112;45.602;11.904;2022-12-29T16:54:54;43.22;;;25.92;;
62574;SDS011;53112;45.602;11.904;2022-12-29T16:57:25;46.63;;;28.60;;
62574;SDS011;53112;45.602;11.904;2022-12-29T17:00:04;45.20;;;27.90;;
62574;SDS011;53112;45.602;11.904;2022-12-29T17:02:32;41.22;;;25.95;;
62574;SDS011;53112;45.602;11.904;2022-12-29T17:04:59;40.42;;;24.88;;
62574;SDS011;53112;45.602;11.904;2022-12-29T17:07:26;40.38;;;24.98;;
62574;SDS011;53112;45.602;11.904;2022-12-29T17:09:53;45.17;;;26.23;;
62574;SDS011;53112;45.602;11.904;2022-12-29T17:12:23;41.60;;;25.33;;
62574;SDS011;53112;45.602;11.904;2022-12-29T17:14:56;38.13;;;23.52;;
62574;SDS011;53112;45.602;11.904;2022-12-29T17:17:40;42.97;;;25.58;;
62574;SDS011;53112;45.602;11.904;2022-12-29T17:20:15;39.33;;;23.70;;
62574;SDS011;53112;45.602;11.904;2022-12-29T17:22:46;39.15;;;23.80;;
62574;SDS011;53112;45.602;11.904;2022-12-29T17:25:14;41.00;;;26.08;;